createdAt,value
2018-06-04T00:00:11.558Z,100611.71
2018-06-04T00:01:14.954Z,100615.88
2018-06-04T00:02:18.417Z,100614.70
2018-06-04T00:03:21.825Z,100613.31
2018-06-04T00:04:25.243Z,100612.73
2018-06-04T00:05:28.662Z,100614.34
2018-06-04T00:06:32.050Z,100612.95
2018-06-04T00:07:35.446Z,100613.53
2018-06-04T00:08:38.920Z,100614.34
2018-06-04T00:09:42.343Z,100615.73
2018-06-04T00:10:45.730Z,100610.76
2018-06-04T00:11:49.155Z,100612.37
2018-06-04T00:12:52.568Z,100618.50
2018-06-04T00:13:55.985Z,100616.31
2018-06-04T00:14:59.406Z,100614.70
2018-06-04T00:16:02.850Z,100617.70
2018-06-04T00:17:06.243Z,100616.31
2018-06-04T00:18:09.678Z,100621.64
2018-06-04T00:19:13.096Z,100618.50
2018-06-04T00:20:16.512Z,100624.86
2018-06-04T00:21:19.920Z,100619.67
2018-06-04T00:22:23.335Z,100620.47
2018-06-04T00:23:26.733Z,100613.31
2018-06-04T00:24:30.157Z,100612.95
2018-06-04T00:25:33.602Z,100610.98
2018-06-04T00:26:37.120Z,100612.37
2018-06-04T00:27:40.520Z,100610.76
2018-06-04T00:28:43.921Z,100611.56
2018-06-04T00:29:47.352Z,100609.37
2018-06-04T00:30:50.786Z,100616.53
2018-06-04T00:31:54.195Z,100609.59
2018-06-04T00:32:57.614Z,100609.59
2018-06-04T00:34:01.049Z,100610.02
2018-06-04T00:35:04.485Z,100612.59
2018-06-04T00:36:07.889Z,100609.22
2018-06-04T00:37:11.304Z,100606.08
2018-06-04T00:38:14.708Z,100614.41
2018-06-04T00:39:18.129Z,100611.85
2018-06-04T00:40:21.560Z,100616.97
2018-06-04T00:41:24.943Z,100616.23
2018-06-04T00:42:28.424Z,100616.02
2018-06-04T00:43:31.847Z,100613.24
2018-06-04T00:44:35.265Z,100610.68
2018-06-04T00:45:38.693Z,100611.27
2018-06-04T00:46:42.133Z,100609.87
2018-06-04T00:47:45.548Z,100607.91
2018-06-04T00:48:48.949Z,100613.89
2018-06-04T00:49:52.349Z,100607.32
2018-06-04T00:50:55.765Z,100607.54
2018-06-04T00:51:59.162Z,100611.34
2018-06-04T00:53:02.548Z,100604.98
2018-06-04T00:54:05.991Z,100606.81
2018-06-04T00:55:09.391Z,100601.25
2018-06-04T00:56:19.578Z,100607.06
2018-06-04T00:57:22.975Z,100605.08
2018-06-04T00:58:26.362Z,100606.25
2018-06-04T00:59:29.780Z,100606.25
2018-06-04T01:00:33.998Z,100607.06
2018-06-04T01:01:37.425Z,100601.50
2018-06-04T01:02:40.802Z,100609.25
2018-06-04T01:03:44.200Z,100605.66
2018-06-04T01:04:47.612Z,100600.45
2018-06-04T01:05:51.019Z,100606.00
2018-06-04T01:06:54.430Z,100605.20
2018-06-04T01:07:57.818Z,100605.78
2018-06-04T01:09:01.199Z,100604.18
2018-06-04T01:10:04.651Z,100609.95
2018-06-04T01:11:09.030Z,100601.98
2018-06-04T01:12:12.454Z,100595.05
2018-06-04T01:13:15.836Z,100597.02
2018-06-04T01:14:19.255Z,100600.38
2018-06-04T01:15:22.644Z,100597.02
2018-06-04T01:16:26.036Z,100589.05
2018-06-04T01:17:29.441Z,100588.25
2018-06-04T01:18:32.808Z,100593.22
2018-06-04T01:19:36.188Z,100596.80
2018-06-04T01:20:39.582Z,100596.58
2018-06-04T01:21:42.992Z,100594.97
2018-06-04T01:22:46.404Z,100596.58
2018-06-04T01:23:49.833Z,100589.20
2018-06-04T01:24:53.222Z,100589.42
2018-06-04T01:25:56.659Z,100586.79
2018-06-04T01:27:00.043Z,100583.21
2018-06-04T01:28:03.495Z,100580.44
2018-06-04T01:29:06.890Z,100584.02
2018-06-04T01:30:10.284Z,100585.98
2018-06-04T01:31:13.672Z,100584.38
2018-06-04T01:32:17.093Z,100585.77
2018-06-04T01:33:20.552Z,100587.38
2018-06-04T01:34:23.968Z,100587.38
2018-06-04T01:35:27.605Z,100582.99
2018-06-04T01:36:31.016Z,100585.98
2018-06-04T01:37:34.429Z,100582.99
2018-06-04T01:38:37.835Z,100580.22
2018-06-04T01:39:41.254Z,100588.55
2018-06-04T01:40:44.650Z,100583.43
2018-06-04T01:41:48.028Z,100584.81
2018-06-04T01:42:51.414Z,100583.86
2018-06-04T01:43:54.851Z,100584.30
2018-06-04T01:44:58.269Z,100584.30
2018-06-04T01:46:01.657Z,100581.52
2018-06-04T01:47:05.136Z,100578.53
2018-06-04T01:48:08.561Z,100577.58
2018-06-04T01:49:11.975Z,100576.78
2018-06-04T01:50:15.380Z,100583.13
2018-06-04T01:51:18.794Z,100571.80
2018-06-04T01:52:22.184Z,100573.63
2018-06-04T01:53:25.585Z,100571.66
2018-06-04T01:54:29.002Z,100570.86
2018-06-04T01:55:32.424Z,100569.09
2018-06-04T01:56:35.847Z,100563.33
2018-06-04T01:57:39.338Z,100572.45
2018-06-04T01:58:42.760Z,100560.55
2018-06-04T01:59:46.146Z,100565.30
2018-06-04T02:00:49.556Z,100566.47
2018-06-04T02:01:53.237Z,100560.70
2018-06-04T02:02:56.648Z,100567.64
2018-06-04T02:04:00.043Z,100565.45
2018-06-04T02:05:03.483Z,100563.84
2018-06-04T02:06:06.931Z,100562.23
2018-06-04T02:07:10.339Z,100560.84
2018-06-04T02:08:13.722Z,100564.21
2018-06-04T02:09:17.123Z,100557.27
2018-06-04T02:10:20.540Z,100561.65
2018-06-04T02:11:23.925Z,100558.66
2018-06-04T02:12:27.310Z,100554.27
2018-06-04T02:13:30.688Z,100548.50
2018-06-04T02:14:34.102Z,100546.96
2018-06-04T02:15:37.525Z,100546.59
2018-06-04T02:16:40.951Z,100553.54
2018-06-04T02:17:44.362Z,100554.34
2018-06-04T02:18:47.763Z,100558.94
2018-06-04T02:19:51.167Z,100544.47
2018-06-04T02:20:54.556Z,100555.58
2018-06-04T02:21:57.964Z,100552.59
2018-06-04T02:23:01.346Z,100538.92
2018-06-04T02:24:04.777Z,100545.49
2018-06-04T02:25:08.178Z,100549.44
2018-06-04T02:26:11.602Z,100546.30
2018-06-04T02:27:15.027Z,100550.25
2018-06-04T02:28:18.472Z,100540.74
2018-06-04T02:29:21.883Z,100541.55
2018-06-04T02:30:25.297Z,100537.05
2018-06-04T02:31:28.679Z,100537.63
2018-06-04T02:32:32.101Z,100543.40
2018-06-04T02:33:35.532Z,100542.59
2018-06-04T02:34:38.933Z,100539.82
2018-06-04T02:35:42.330Z,100537.63
2018-06-04T02:36:45.747Z,100539.23
2018-06-04T02:37:49.159Z,100540.84
2018-06-04T02:38:52.535Z,100535.28
2018-06-04T02:39:55.943Z,100537.48
2018-06-04T02:40:59.358Z,100543.84
2018-06-04T02:42:02.785Z,100540.03
2018-06-04T02:43:06.346Z,100541.42
2018-06-04T02:44:09.727Z,100537.05
2018-06-04T02:45:13.105Z,100534.27
2018-06-04T02:46:16.535Z,100537.05
2018-06-04T02:47:19.952Z,100540.62
2018-06-04T02:48:23.326Z,100535.19
2018-06-04T02:49:26.743Z,100535.77
2018-06-04T02:50:30.161Z,100533.36
2018-06-04T02:51:33.602Z,100537.53
2018-06-04T02:52:36.994Z,100536.73
2018-06-04T02:53:40.997Z,100540.31
2018-06-04T02:54:44.372Z,100537.09
2018-06-04T02:55:47.775Z,100545.64
2018-06-04T02:56:51.207Z,100538.12
2018-06-04T02:57:54.595Z,100551.20
2018-06-04T02:58:57.987Z,100547.62
2018-06-04T03:00:01.371Z,100550.98
2018-06-04T03:01:04.793Z,100552.37
2018-06-04T03:02:08.238Z,100548.20
2018-06-04T03:03:11.654Z,100553.32
2018-06-04T03:04:15.042Z,100557.48
2018-06-04T03:05:18.431Z,100546.75
2018-06-04T03:06:21.817Z,100551.50
2018-06-04T03:07:25.285Z,100550.11
2018-06-04T03:08:28.726Z,100551.50
2018-06-04T03:09:32.180Z,100546.67
2018-06-04T03:10:35.621Z,100543.91
2018-06-04T03:11:39.023Z,100549.23
2018-06-04T03:12:42.450Z,100552.38
2018-06-04T03:13:45.868Z,100544.97
2018-06-04T03:14:49.291Z,100546.95
2018-06-04T03:15:52.703Z,100545.55
2018-06-04T03:16:56.171Z,100542.34
2018-06-04T03:17:59.578Z,100545.13
2018-06-04T03:19:02.976Z,100544.31
2018-06-04T03:20:06.390Z,100537.96
2018-06-04T03:21:09.816Z,100543.30
2018-06-04T03:22:13.225Z,100540.30
2018-06-04T03:23:16.651Z,100536.14
2018-06-04T03:24:20.051Z,100535.34
2018-06-04T03:25:23.461Z,100535.92
2018-06-04T03:26:26.867Z,100539.28
2018-06-04T03:27:30.278Z,100542.05
2018-06-04T03:28:33.698Z,100538.48
2018-06-04T03:29:37.108Z,100539.86
2018-06-04T03:30:40.505Z,100537.31
2018-06-04T03:31:43.915Z,100540.09
2018-06-04T03:32:47.335Z,100538.11
2018-06-04T03:33:50.750Z,100539.50
2018-06-04T03:34:54.221Z,100543.88
2018-06-04T03:35:57.683Z,100536.58
2018-06-04T03:37:01.099Z,100539.57
2018-06-04T03:38:04.873Z,100528.46
2018-06-04T03:39:08.974Z,100535.41
2018-06-04T03:40:12.388Z,100534.60
2018-06-04T03:41:15.804Z,100529.27
2018-06-04T03:42:19.193Z,100525.32
2018-06-04T03:43:22.616Z,100524.95
2018-06-04T03:44:26.040Z,100529.58
2018-06-04T03:45:29.437Z,100528.78
2018-06-04T03:46:32.859Z,100529.33
2018-06-04T03:47:36.248Z,100527.95
2018-06-04T03:48:39.664Z,100522.39
2018-06-04T03:49:43.084Z,100527.39
2018-06-04T03:50:46.472Z,100531.31
2018-06-04T03:51:49.865Z,100531.67
2018-06-04T03:52:53.276Z,100535.04
2018-06-04T03:53:56.696Z,100530.88
2018-06-04T03:55:00.112Z,100535.84
2018-06-04T03:56:03.510Z,100527.66
2018-06-04T03:57:06.976Z,100534.82
2018-06-04T03:58:10.364Z,100532.41
2018-06-04T03:59:13.797Z,100528.46
2018-06-04T04:00:17.196Z,100534.02
2018-06-04T04:01:20.583Z,100530.22
2018-06-04T04:02:23.985Z,100528.61
2018-06-04T04:03:27.373Z,100532.41
2018-06-04T04:04:30.802Z,100530.22
2018-06-04T04:05:34.271Z,100531.83
2018-06-04T04:06:37.804Z,100531.83
2018-06-04T04:07:41.284Z,100528.83
2018-06-04T04:08:44.687Z,100528.03
2018-06-04T04:09:48.123Z,100533.80
2018-06-04T04:10:51.529Z,100529.41
2018-06-04T04:11:54.940Z,100526.05
2018-06-04T04:12:58.341Z,100521.30
2018-06-04T04:14:01.793Z,100521.30
2018-06-04T04:15:05.184Z,100526.86
2018-06-04T04:16:08.588Z,100530.80
2018-06-04T04:17:11.985Z,100528.83
2018-06-04T04:18:15.389Z,100529.41
2018-06-04T04:19:18.811Z,100538.55
2018-06-04T04:20:22.250Z,100533.58
2018-06-04T04:21:26.002Z,100534.75
2018-06-04T04:22:29.441Z,100534.75
2018-06-04T04:23:32.845Z,100529.20
2018-06-04T04:24:36.234Z,100531.39
2018-06-04T04:25:39.661Z,100531.17
2018-06-04T04:26:43.112Z,100531.75
2018-06-04T04:27:46.541Z,100523.20
2018-06-04T04:28:49.968Z,100525.41
2018-06-04T04:29:53.416Z,100528.98
2018-06-04T04:30:56.814Z,100523.20
2018-06-04T04:32:00.197Z,100518.46
2018-06-04T04:33:03.599Z,100527.38
2018-06-04T04:34:07.034Z,100528.98
2018-06-04T04:35:10.463Z,100526.79
2018-06-04T04:36:13.887Z,100522.41
2018-06-04T04:37:17.267Z,100523.80
2018-06-04T04:38:20.663Z,100527.95
2018-06-04T04:39:24.043Z,100529.34
2018-06-04T04:40:27.448Z,100525.18
2018-06-04T04:41:30.855Z,100530.73
2018-06-04T04:42:34.263Z,100527.74
2018-06-04T04:43:37.652Z,100525.55
2018-06-04T04:44:41.064Z,100524.75
2018-06-04T04:45:44.460Z,100526.13
2018-06-04T04:46:47.867Z,100531.10
2018-06-04T04:47:51.345Z,100525.55
2018-06-04T04:48:54.745Z,100521.16
2018-06-04T04:49:58.163Z,100521.97
2018-06-04T04:51:01.601Z,100525.33
2018-06-04T04:52:05.036Z,100523.73
2018-06-04T04:53:08.443Z,100522.34
2018-06-04T04:54:11.875Z,100520.73
2018-06-04T04:55:15.288Z,100517.12
2018-06-04T04:56:19.267Z,100516.32
2018-06-04T04:57:22.680Z,100518.87
2018-06-04T04:58:26.068Z,100522.23
2018-06-04T04:59:29.484Z,100516.69
2018-06-04T05:00:32.897Z,100524.42
2018-06-04T05:01:36.294Z,100526.40
2018-06-04T05:02:39.723Z,100525.37
2018-06-04T05:03:43.131Z,100529.98
2018-06-04T05:04:46.518Z,100523.62
2018-06-04T05:05:49.905Z,100525.02
2018-06-04T05:06:53.306Z,100528.59
2018-06-04T05:07:56.717Z,100520.27
2018-06-04T05:09:00.107Z,100523.04
2018-06-04T05:10:03.790Z,100526.62
2018-06-04T05:11:07.186Z,100530.20
2018-06-04T05:12:10.577Z,100529.06
2018-06-04T05:13:13.994Z,100528.69
2018-06-04T05:14:17.388Z,100528.47
2018-06-04T05:15:20.952Z,100530.08
2018-06-04T05:16:24.357Z,100537.83
2018-06-04T05:17:27.768Z,100527.30
2018-06-04T05:18:31.191Z,100527.09
2018-06-04T05:19:34.628Z,100528.22
2018-06-04T05:20:38.037Z,100528.67
2018-06-04T05:21:41.444Z,100522.47
2018-06-04T05:22:45.108Z,100521.13
2018-06-04T05:23:48.616Z,100521.78
2018-06-04T05:24:52.054Z,100519.25
2018-06-04T05:25:55.477Z,100522.63
2018-06-04T05:26:58.874Z,100518.69
2018-06-04T05:28:02.294Z,100511.37
2018-06-04T05:29:05.956Z,100511.72
2018-06-04T05:30:09.355Z,100514.77
2018-06-04T05:31:12.794Z,100513.54
2018-06-04T05:32:16.258Z,100510.23
2018-06-04T05:33:20.013Z,100516.70
2018-06-04T05:34:23.444Z,100516.70
2018-06-04T05:35:26.943Z,100519.48
2018-06-04T05:36:30.341Z,100511.97
2018-06-04T05:37:33.792Z,100514.87
2018-06-04T05:38:37.178Z,100519.97
2018-06-04T05:39:40.601Z,100519.27
2018-06-04T05:40:44.047Z,100522.07
2018-06-04T05:41:47.433Z,100524.36
2018-06-04T05:42:50.861Z,100518.46
2018-06-04T05:43:54.260Z,100528.95
2018-06-04T05:44:57.673Z,100521.66
2018-06-04T05:46:01.059Z,100525.37
2018-06-04T05:47:04.535Z,100529.88
2018-06-04T05:48:07.955Z,100521.35
2018-06-04T05:49:11.335Z,100523.19
2018-06-04T05:50:14.767Z,100525.37
2018-06-04T05:51:19.353Z,100527.56
2018-06-04T05:52:23.947Z,100526.76
2018-06-04T05:53:28.451Z,100527.56
2018-06-04T05:54:33.047Z,100527.47
2018-06-04T05:55:37.502Z,100527.22
2018-06-04T05:56:40.931Z,100520.88
2018-06-04T05:57:44.351Z,100520.88
2018-06-04T05:58:47.816Z,100519.84
2018-06-04T05:59:51.208Z,100518.33
2018-06-04T06:00:54.634Z,100510.28
2018-06-04T06:01:58.068Z,100506.56
2018-06-04T06:03:01.479Z,100515.56
2018-06-04T06:04:05.124Z,100506.92
2018-06-04T06:05:08.523Z,100506.92
2018-06-04T06:06:11.989Z,100505.19
2018-06-04T06:07:15.408Z,100507.59
2018-06-04T06:08:18.790Z,100508.63
2018-06-04T06:09:22.215Z,100501.13
2018-06-04T06:10:25.659Z,100501.70
2018-06-04T06:11:29.140Z,100503.80
2018-06-04T06:12:32.545Z,100505.19
2018-06-04T06:13:35.981Z,100503.09
2018-06-04T06:14:39.385Z,100502.88
2018-06-04T06:15:42.807Z,100503.59
2018-06-04T06:16:46.197Z,100499.44
2018-06-04T06:17:49.683Z,100504.62
2018-06-04T06:18:53.066Z,100492.16
2018-06-04T06:19:56.461Z,100497.01
2018-06-04T06:21:00.049Z,100496.88
2018-06-04T06:22:03.637Z,100490.63
2018-06-04T06:23:07.375Z,100497.41
2018-06-04T06:24:11.105Z,100494.28
2018-06-04T06:25:14.559Z,100494.95
2018-06-04T06:26:18.343Z,100496.56
2018-06-04T06:27:21.845Z,100492.30
2018-06-04T06:28:25.271Z,100489.75
2018-06-04T06:29:28.821Z,100494.58
2018-06-04T06:30:32.255Z,100489.70
2018-06-04T06:31:35.825Z,100488.19
2018-06-04T06:32:39.287Z,100487.83
2018-06-04T06:33:42.919Z,100485.50
2018-06-04T06:34:47.025Z,100487.36
2018-06-04T06:35:50.464Z,100481.10
2018-06-04T06:36:53.916Z,100479.58
2018-06-04T06:37:57.340Z,100480.61
2018-06-04T06:39:00.790Z,100483.81
2018-06-04T06:40:04.282Z,100482.07
2018-06-04T06:41:07.724Z,100475.95
2018-06-04T06:42:11.228Z,100478.61
2018-06-04T06:43:14.658Z,100479.05
2018-06-04T06:44:18.133Z,100481.83
2018-06-04T06:45:21.660Z,100480.08
2018-06-04T06:46:25.131Z,100482.49
2018-06-04T06:47:28.629Z,100477.17
2018-06-04T06:48:32.208Z,100478.78
2018-06-04T06:49:35.626Z,100485.13
2018-06-04T06:50:39.055Z,100486.15
2018-06-04T06:51:42.520Z,100478.05
2018-06-04T06:52:46.041Z,100481.05
2018-06-04T06:53:49.463Z,100477.47
2018-06-04T06:54:52.933Z,100478.50
2018-06-04T06:55:56.391Z,100479.30
2018-06-04T06:56:59.830Z,100480.91
2018-06-04T06:58:03.617Z,100481.74
2018-06-04T06:59:07.470Z,100481.16
2018-06-04T07:00:10.939Z,100473.42
2018-06-04T07:01:14.600Z,100483.34
2018-06-04T07:02:18.145Z,100480.80
2018-06-04T07:03:21.769Z,100482.19
2018-06-04T07:04:25.178Z,100476.05
2018-06-04T07:05:28.778Z,100483.45
2018-06-04T07:06:32.284Z,100485.17
2018-06-04T07:07:35.730Z,100480.44
2018-06-04T07:08:39.204Z,100477.11
2018-06-04T07:09:42.653Z,100474.34
2018-06-04T07:10:46.105Z,100475.73
2018-06-04T07:11:49.606Z,100478.94
2018-06-04T07:12:53.143Z,100469.23
2018-06-04T07:13:56.782Z,100472.01
2018-06-04T07:15:00.231Z,100473.62
2018-06-04T07:16:03.779Z,100479.02
2018-06-04T07:17:07.219Z,100470.48
2018-06-04T07:18:10.722Z,100474.28
2018-06-04T07:19:14.204Z,100474.50
2018-06-04T07:20:17.939Z,100480.05
2018-06-04T07:21:21.536Z,100471.14
2018-06-04T07:22:25.158Z,100476.91
2018-06-04T07:23:28.762Z,100471.95
2018-06-04T07:24:32.384Z,100470.78
2018-06-04T07:25:35.849Z,100468.81
2018-06-04T07:26:39.528Z,100465.45
2018-06-04T07:27:42.957Z,100461.30
2018-06-04T07:28:46.350Z,100464.88
2018-06-04T07:29:49.793Z,100462.20
2018-06-04T07:30:53.263Z,100463.38
2018-06-04T07:31:56.906Z,100460.97
2018-06-04T07:33:00.559Z,100460.16
2018-06-04T07:34:04.034Z,100462.94
2018-06-04T07:35:07.712Z,100460.16
2018-06-04T07:36:12.059Z,100462.69
2018-06-04T07:37:15.605Z,100462.69
2018-06-04T07:38:19.183Z,100459.11
2018-06-04T07:39:22.981Z,100456.12
2018-06-04T07:40:26.382Z,100456.12
2018-06-04T07:41:29.806Z,100462.02
2018-06-04T07:42:33.234Z,100463.41
2018-06-04T07:43:36.747Z,100462.83
2018-06-04T07:44:40.135Z,100463.41
2018-06-04T07:45:43.605Z,100466.77
2018-06-04T07:46:47.076Z,100463.19
2018-06-04T07:47:50.522Z,100465.96
2018-06-04T07:48:53.953Z,100470.70
2018-06-04T07:49:57.475Z,100470.34
2018-06-04T07:51:00.941Z,100465.16
2018-06-04T07:52:04.389Z,100467.93
2018-06-04T07:53:08.331Z,100465.16
2018-06-04T07:54:12.163Z,100456.04
2018-06-04T07:55:15.598Z,100468.73
2018-06-04T07:56:19.091Z,100461.58
2018-06-04T07:57:22.542Z,100459.76
2018-06-04T07:58:25.977Z,100460.20
2018-06-04T07:59:29.358Z,100458.59
2018-06-04T08:00:32.765Z,100455.59
2018-06-04T08:01:36.169Z,100455.38
2018-06-04T08:02:39.604Z,100455.81
2018-06-04T08:03:43.061Z,100450.05
2018-06-04T08:04:46.564Z,100447.28
2018-06-04T08:05:50.408Z,100448.89
2018-06-04T08:06:54.478Z,100450.27
2018-06-04T08:07:58.270Z,100448.66
2018-06-04T08:09:01.931Z,100450.05
2018-06-04T08:10:05.795Z,100449.25
2018-06-04T08:11:09.354Z,100449.25
2018-06-04T08:12:12.860Z,100448.66
2018-06-04T08:13:16.536Z,100444.51
2018-06-04T08:14:20.150Z,100443.70
2018-06-04T08:15:24.206Z,100448.66
2018-06-04T08:16:27.831Z,100441.52
2018-06-04T08:17:31.358Z,100444.29
2018-06-04T08:18:34.988Z,100440.94
2018-06-04T08:19:38.662Z,100441.73
2018-06-04T08:20:42.118Z,100441.73
2018-06-04T08:21:45.624Z,100441.73
2018-06-04T08:22:49.068Z,100437.36
2018-06-04T08:23:52.666Z,100438.16
2018-06-04T08:24:56.150Z,100440.94
2018-06-04T08:25:59.652Z,100430.43
2018-06-04T08:27:03.337Z,100431.23
2018-06-04T08:28:06.803Z,100428.46
2018-06-04T08:29:10.318Z,100434.59
2018-06-04T08:30:13.766Z,100430.21
2018-06-04T08:31:17.264Z,100428.23
2018-06-04T08:32:20.684Z,100434.37
2018-06-04T08:33:24.140Z,100437.36
2018-06-04T08:34:27.613Z,100428.83
2018-06-04T08:35:31.258Z,100433.20
2018-06-04T08:36:34.689Z,100434.37
2018-06-04T08:37:38.125Z,100426.86
2018-06-04T08:38:41.688Z,100429.05
2018-06-04T08:39:45.238Z,100431.59
2018-06-04T08:40:48.745Z,100429.63
2018-06-04T08:41:52.222Z,100433.20
2018-06-04T08:42:55.806Z,100429.63
2018-06-04T08:43:59.633Z,100426.05
2018-06-04T08:45:03.228Z,100429.41
2018-06-04T08:46:06.720Z,100426.86
2018-06-04T08:47:10.177Z,100431.02
2018-06-04T08:48:13.796Z,100430.43
2018-06-04T08:49:17.276Z,100428.83
2018-06-04T08:50:20.867Z,100427.66
2018-06-04T08:51:24.444Z,100426.05
2018-06-04T08:52:28.056Z,100423.50
2018-06-04T08:53:31.643Z,100431.81
2018-06-04T08:54:35.141Z,100428.23
2018-06-04T08:55:38.647Z,100428.83
2018-06-04T08:56:42.242Z,100428.83
2018-06-04T08:57:45.771Z,100429.05
2018-06-04T08:58:49.389Z,100426.05
2018-06-04T08:59:53.063Z,100427.66
2018-06-04T09:00:56.681Z,100423.50
2018-06-04T09:02:00.199Z,100420.14
2018-06-04T09:03:03.845Z,100423.50
2018-06-04T09:04:07.354Z,100417.95
2018-06-04T09:05:10.955Z,100416.57
2018-06-04T09:06:14.593Z,100424.88
2018-06-04T09:07:18.044Z,100423.50
2018-06-04T09:08:21.697Z,100426.27
2018-06-04T09:09:25.382Z,100420.73
2018-06-04T09:10:29.058Z,100422.92
2018-06-04T09:11:32.556Z,100421.89
2018-06-04T09:12:35.965Z,100429.05
2018-06-04T09:13:39.506Z,100429.05
2018-06-04T09:14:43.320Z,100427.66
2018-06-04T09:15:46.937Z,100419.34
2018-06-04T09:16:50.333Z,100422.92
2018-06-04T09:17:53.784Z,100422.92
2018-06-04T09:18:57.329Z,100425.69
2018-06-04T09:20:01.211Z,100420.14
2018-06-04T09:21:04.708Z,100422.33
2018-06-04T09:22:08.212Z,100420.14
2018-06-04T09:23:11.859Z,100419.78
2018-06-04T09:24:15.239Z,100420.14
2018-06-04T09:25:18.705Z,100420.14
2018-06-04T09:26:22.138Z,100412.63
2018-06-04T09:27:25.648Z,100414.23
2018-06-04T09:28:29.255Z,100417.01
2018-06-04T09:29:32.730Z,100420.58
2018-06-04T09:30:36.369Z,100417.01
2018-06-04T09:31:39.941Z,100414.67
2018-06-04T09:32:43.433Z,100414.09
2018-06-04T09:33:47.001Z,100419.86
2018-06-04T09:34:50.677Z,100415.70
2018-06-04T09:35:54.105Z,100415.70
2018-06-04T09:36:57.710Z,100422.84
2018-06-04T09:38:01.145Z,100420.88
2018-06-04T09:39:06.584Z,100417.30
2018-06-04T09:40:10.141Z,100415.55
2018-06-04T09:41:13.762Z,100418.80
2018-06-04T09:42:17.324Z,100416.24
2018-06-04T09:43:20.811Z,100417.84
2018-06-04T09:44:24.403Z,100420.84
2018-06-04T09:45:27.934Z,100418.87
2018-06-04T09:46:31.518Z,100417.70
2018-06-04T09:47:35.154Z,100415.52
2018-06-04T09:48:38.641Z,100415.73
2018-06-04T09:49:42.089Z,100418.28
2018-06-04T09:50:45.663Z,100418.51
2018-06-04T09:51:49.089Z,100419.67
2018-06-04T09:52:52.986Z,100417.70
2018-06-04T09:53:56.553Z,100409.97
2018-06-04T09:55:00.169Z,100418.28
2018-06-04T09:56:03.746Z,100412.16
2018-06-04T09:57:07.279Z,100407.78
2018-06-04T09:58:10.981Z,100409.97
2018-06-04T09:59:14.640Z,100411.14
2018-06-04T10:00:23.446Z,100407.78
2018-06-04T10:01:26.853Z,100408.36
2018-06-04T10:02:30.311Z,100409.75
2018-06-04T10:03:33.968Z,100409.16
2018-06-04T10:04:37.374Z,100405.59
2018-06-04T10:05:40.919Z,100411.14
2018-06-04T10:06:44.418Z,100406.98
2018-06-04T10:07:48.048Z,100408.95
2018-06-04T10:08:51.541Z,100414.49
2018-06-04T10:09:54.930Z,100408.95
2018-06-04T10:10:58.362Z,100405.59
2018-06-04T10:12:01.761Z,100413.69
2018-06-04T10:13:05.253Z,100416.46
2018-06-04T10:14:08.753Z,100414.49
2018-06-04T10:15:12.291Z,100400.63
2018-06-04T10:16:15.809Z,100402.59
2018-06-04T10:17:19.357Z,100406.17
2018-06-04T10:18:22.827Z,100412.52
2018-06-04T10:19:26.287Z,100406.76
2018-06-04T10:20:30.222Z,100406.17
2018-06-04T10:21:33.762Z,100402.02
2018-06-04T10:22:37.343Z,100412.52
2018-06-04T10:23:40.964Z,100409.97
2018-06-04T10:24:44.473Z,100414.93
2018-06-04T10:25:48.023Z,100407.41
2018-06-04T10:26:51.712Z,100409.61
2018-06-04T10:27:55.447Z,100411.58
2018-06-04T10:28:58.937Z,100407.41
2018-06-04T10:30:02.545Z,100401.29
2018-06-04T10:31:06.014Z,100403.70
2018-06-04T10:32:09.489Z,100399.53
2018-06-04T10:33:12.879Z,100406.25
2018-06-04T10:34:16.482Z,100406.47
2018-06-04T10:35:19.926Z,100406.47
2018-06-04T10:36:23.396Z,100398.15
2018-06-04T10:37:26.824Z,100399.53
2018-06-04T10:38:30.508Z,100407.86
2018-06-04T10:39:34.063Z,100400.92
2018-06-04T10:40:37.594Z,100394.58
2018-06-04T10:41:41.167Z,100396.55
2018-06-04T10:42:44.738Z,100396.98
2018-06-04T10:43:48.226Z,100398.95
2018-06-04T10:44:51.669Z,100405.08
2018-06-04T10:45:55.203Z,100402.31
2018-06-04T10:46:58.603Z,100396.77
2018-06-04T10:48:02.019Z,100395.59
2018-06-04T10:49:05.469Z,100392.02
2018-06-04T10:50:08.984Z,100392.82
2018-06-04T10:51:12.413Z,100388.44
2018-06-04T10:52:15.839Z,100394.20
2018-06-04T10:53:19.237Z,100390.85
2018-06-04T10:54:22.641Z,100390.05
2018-06-04T10:55:26.064Z,100391.66
2018-06-04T10:56:29.551Z,100395.02
2018-06-04T10:57:32.989Z,100392.45
2018-06-04T10:58:36.395Z,100395.23
2018-06-04T10:59:39.806Z,100393.04
2018-06-04T11:00:43.210Z,100394.64
2018-06-04T11:01:46.639Z,100392.09
2018-06-04T11:02:50.063Z,100389.75
2018-06-04T11:03:53.456Z,100384.46
2018-06-04T11:04:56.996Z,100388.25
2018-06-04T11:06:00.340Z,100387.81
2018-06-04T11:07:03.828Z,100384.46
2018-06-04T11:08:07.485Z,100393.80
2018-06-04T11:09:10.889Z,100384.09
2018-06-04T11:10:14.312Z,100386.65
2018-06-04T11:11:17.782Z,100384.09
2018-06-04T11:12:21.188Z,100380.95
2018-06-04T11:13:24.574Z,100378.77
2018-06-04T11:14:27.959Z,100381.17
2018-06-04T11:15:31.389Z,100382.99
2018-06-04T11:16:34.799Z,100382.77
2018-06-04T11:17:38.208Z,100379.05
2018-06-04T11:18:41.583Z,100380.44
2018-06-04T11:19:44.959Z,100380.08
2018-06-04T11:20:48.623Z,100378.10
2018-06-04T11:21:52.130Z,100376.50
2018-06-04T11:22:55.549Z,100375.91
2018-06-04T11:23:59.053Z,100371.17
2018-06-04T11:25:02.495Z,100376.94
2018-06-04T11:26:05.901Z,100383.87
2018-06-04T11:27:09.308Z,100378.69
2018-06-04T11:28:13.208Z,100378.91
2018-06-04T11:29:16.635Z,100378.91
2018-06-04T11:30:20.105Z,100379.70
2018-06-04T11:31:23.566Z,100378.32
2018-06-04T11:32:27.312Z,100375.55
2018-06-04T11:33:30.861Z,100368.61
2018-06-04T11:34:34.246Z,100368.61
2018-06-04T11:35:37.654Z,100367.23
2018-06-04T11:36:41.146Z,100371.39
2018-06-04T11:37:44.609Z,100367.44
2018-06-04T11:38:48.101Z,100369.20
2018-06-04T11:39:51.508Z,100365.84
2018-06-04T11:40:54.898Z,100364.67
2018-06-04T11:41:58.393Z,100365.84
2018-06-04T11:43:01.865Z,100363.28
2018-06-04T11:44:05.687Z,100359.70
2018-06-04T11:45:09.478Z,100361.09
2018-06-04T11:46:12.859Z,100364.09
2018-06-04T11:47:16.254Z,100363.28
2018-06-04T11:48:19.654Z,100362.11
2018-06-04T11:49:23.063Z,100362.11
2018-06-04T11:50:26.596Z,100359.34
2018-06-04T11:51:30.031Z,100363.50
2018-06-04T11:52:33.458Z,100355.39
2018-06-04T11:53:36.868Z,100360.95
2018-06-04T11:54:40.282Z,100355.64
2018-06-04T11:55:43.677Z,100352.28
2018-06-04T11:56:47.113Z,100354.47
2018-06-04T11:57:50.497Z,100355.86
2018-06-04T11:58:53.902Z,100350.90
2018-06-04T11:59:57.316Z,100350.90
2018-06-04T12:01:00.690Z,100353.09
2018-06-04T12:02:04.085Z,100353.09
2018-06-04T12:03:07.505Z,100341.78
2018-06-04T12:04:10.900Z,100341.78